sensor_id;sensor_type;location;lat;lon;timestamp;P1;durP1;ratioP1;P2;durP2;ratioP2
15526;SDS011;7865;50.918;4.510;2023-02-01T00:02:20;18.30;;;6.77;;
15526;SDS011;7865;50.918;4.510;2023-02-01T00:07:22;16.03;;;5.57;;
15526;SDS011;7865;50.918;4.510;2023-02-01T00:12:23;16.70;;;6.37;;
15526;SDS011;7865;50.918;4.510;2023-02-01T00:17:26;16.50;;;6.67;;
15526;SDS011;7865;50.918;4.510;2023-02-01T00:22:28;19.00;;;6.17;;
15526;SDS011;7865;50.918;4.510;2023-02-01T00:27:32;20.53;;;6.37;;
15526;SDS011;7865;50.918;4.510;2023-02-01T00:32:34;13.73;;;5.43;;
15526;SDS011;7865;50.918;4.510;2023-02-01T00:37:36;18.27;;;5.60;;
15526;SDS011;7865;50.918;4.510;2023-02-01T00:42:38;14.07;;;5.63;;
15526;SDS011;7865;50.918;4.510;2023-02-01T00:47:40;18.60;;;6.30;;
15526;SDS011;7865;50.918;4.510;2023-02-01T00:52:42;17.80;;;6.67;;
15526;SDS011;7865;50.918;4.510;2023-02-01T00:57:44;19.13;;;5.50;;
15526;SDS011;7865;50.918;4.510;2023-02-01T01:02:46;12.97;;;5.43;;
15526;SDS011;7865;50.918;4.510;2023-02-01T01:07:48;17.83;;;6.00;;
15526;SDS011;7865;50.918;4.510;2023-02-01T01:12:50;11.67;;;4.93;;
15526;SDS011;7865;50.918;4.510;2023-02-01T01:17:52;16.87;;;4.47;;
15526;SDS011;7865;50.918;4.510;2023-02-01T01:22:57;16.73;;;4.40;;
15526;SDS011;7865;50.918;4.510;2023-02-01T01:27:59;15.30;;;4.13;;
15526;SDS011;7865;50.918;4.510;2023-02-01T01:33:01;17.53;;;3.97;;
15526;SDS011;7865;50.918;4.510;2023-02-01T01:38:03;11.63;;;3.60;;
15526;SDS011;7865;50.918;4.510;2023-02-01T01:43:11;15.40;;;3.53;;
15526;SDS011;7865;50.918;4.510;2023-02-01T01:48:17;9.10;;;4.20;;
15526;SDS011;7865;50.918;4.510;2023-02-01T01:53:24;17.50;;;4.00;;
15526;SDS011;7865;50.918;4.510;2023-02-01T01:58:30;14.93;;;4.07;;
15526;SDS011;7865;50.918;4.510;2023-02-01T02:03:37;12.80;;;3.70;;
15526;SDS011;7865;50.918;4.510;2023-02-01T02:08:42;16.30;;;4.33;;
15526;SDS011;7865;50.918;4.510;2023-02-01T02:13:46;20.90;;;4.17;;
15526;SDS011;7865;50.918;4.510;2023-02-01T02:35:12;14.03;;;2.93;;
15526;SDS011;7865;50.918;4.510;2023-02-01T02:45:38;12.97;;;2.63;;
15526;SDS011;7865;50.918;4.510;2023-02-01T02:51:05;10.93;;;3.43;;
15526;SDS011;7865;50.918;4.510;2023-02-01T02:56:30;17.63;;;3.53;;
15526;SDS011;7865;50.918;4.510;2023-02-01T03:01:51;11.83;;;3.57;;
15526;SDS011;7865;50.918;4.510;2023-02-01T03:07:14;7.13;;;2.97;;
15526;SDS011;7865;50.918;4.510;2023-02-01T03:12:37;16.27;;;3.03;;
15526;SDS011;7865;50.918;4.510;2023-02-01T03:17:59;11.70;;;2.87;;
15526;SDS011;7865;50.918;4.510;2023-02-01T03:23:06;14.13;;;4.20;;
15526;SDS011;7865;50.918;4.510;2023-02-01T03:28:09;18.17;;;3.50;;
15526;SDS011;7865;50.918;4.510;2023-02-01T03:33:16;12.57;;;3.00;;
15526;SDS011;7865;50.918;4.510;2023-02-01T03:44:00;17.47;;;3.20;;
15526;SDS011;7865;50.918;4.510;2023-02-01T03:49:06;12.67;;;2.57;;
15526;SDS011;7865;50.918;4.510;2023-02-01T03:54:13;11.80;;;3.13;;
15526;SDS011;7865;50.918;4.510;2023-02-01T03:59:17;12.77;;;3.10;;
15526;SDS011;7865;50.918;4.510;2023-02-01T04:04:19;9.57;;;2.80;;
15526;SDS011;7865;50.918;4.510;2023-02-01T04:09:25;15.17;;;2.90;;
15526;SDS011;7865;50.918;4.510;2023-02-01T04:14:28;11.73;;;3.33;;
15526;SDS011;7865;50.918;4.510;2023-02-01T04:19:29;14.27;;;4.07;;
15526;SDS011;7865;50.918;4.510;2023-02-01T04:24:31;10.30;;;2.73;;
15526;SDS011;7865;50.918;4.510;2023-02-01T04:29:33;18.03;;;3.57;;
15526;SDS011;7865;50.918;4.510;2023-02-01T04:34:35;12.93;;;3.20;;
15526;SDS011;7865;50.918;4.510;2023-02-01T04:39:40;13.27;;;2.93;;
15526;SDS011;7865;50.918;4.510;2023-02-01T04:44:42;18.27;;;3.40;;
15526;SDS011;7865;50.918;4.510;2023-02-01T04:49:44;18.27;;;3.33;;
15526;SDS011;7865;50.918;4.510;2023-02-01T04:54:46;16.63;;;2.87;;
15526;SDS011;7865;50.918;4.510;2023-02-01T04:59:48;11.73;;;2.33;;
15526;SDS011;7865;50.918;4.510;2023-02-01T05:04:50;11.63;;;3.37;;
15526;SDS011;7865;50.918;4.510;2023-02-01T05:09:52;17.40;;;3.13;;
15526;SDS011;7865;50.918;4.510;2023-02-01T05:14:54;7.87;;;2.33;;
15526;SDS011;7865;50.918;4.510;2023-02-01T05:19:56;18.70;;;4.00;;
15526;SDS011;7865;50.918;4.510;2023-02-01T05:24:58;10.63;;;3.73;;
15526;SDS011;7865;50.918;4.510;2023-02-01T05:30:00;11.60;;;2.63;;
15526;SDS011;7865;50.918;4.510;2023-02-01T05:35:02;18.60;;;4.67;;
15526;SDS011;7865;50.918;4.510;2023-02-01T05:40:04;18.63;;;3.80;;
15526;SDS011;7865;50.918;4.510;2023-02-01T05:45:07;13.33;;;2.83;;
15526;SDS011;7865;50.918;4.510;2023-02-01T05:50:09;19.30;;;3.97;;
15526;SDS011;7865;50.918;4.510;2023-02-01T05:55:11;21.07;;;3.90;;
15526;SDS011;7865;50.918;4.510;2023-02-01T06:00:13;15.77;;;3.20;;
15526;SDS011;7865;50.918;4.510;2023-02-01T06:05:16;11.07;;;2.83;;
15526;SDS011;7865;50.918;4.510;2023-02-01T06:10:21;15.00;;;3.60;;
15526;SDS011;7865;50.918;4.510;2023-02-01T06:15:24;14.93;;;3.03;;
15526;SDS011;7865;50.918;4.510;2023-02-01T06:20:26;9.87;;;2.67;;
15526;SDS011;7865;50.918;4.510;2023-02-01T06:25:28;15.10;;;3.73;;
15526;SDS011;7865;50.918;4.510;2023-02-01T06:30:31;11.63;;;2.70;;
15526;SDS011;7865;50.918;4.510;2023-02-01T06:35:33;12.40;;;3.17;;
15526;SDS011;7865;50.918;4.510;2023-02-01T06:40:35;13.73;;;3.13;;
15526;SDS011;7865;50.918;4.510;2023-02-01T06:45:37;11.37;;;2.87;;
15526;SDS011;7865;50.918;4.510;2023-02-01T06:50:40;12.17;;;2.73;;
15526;SDS011;7865;50.918;4.510;2023-02-01T06:55:50;12.43;;;3.13;;
15526;SDS011;7865;50.918;4.510;2023-02-01T07:00:55;11.40;;;3.80;;
15526;SDS011;7865;50.918;4.510;2023-02-01T07:05:57;15.77;;;3.37;;
15526;SDS011;7865;50.918;4.510;2023-02-01T07:11:12;21.90;;;3.63;;
15526;SDS011;7865;50.918;4.510;2023-02-01T07:16:16;9.70;;;2.90;;
15526;SDS011;7865;50.918;4.510;2023-02-01T07:21:20;7.57;;;2.57;;
15526;SDS011;7865;50.918;4.510;2023-02-01T07:26:22;13.20;;;3.37;;
15526;SDS011;7865;50.918;4.510;2023-02-01T07:31:24;9.20;;;3.03;;
15526;SDS011;7865;50.918;4.510;2023-02-01T07:36:28;9.37;;;2.90;;
15526;SDS011;7865;50.918;4.510;2023-02-01T07:41:30;14.17;;;3.13;;
15526;SDS011;7865;50.918;4.510;2023-02-01T07:46:31;14.53;;;2.77;;
15526;SDS011;7865;50.918;4.510;2023-02-01T07:51:33;17.60;;;2.87;;
15526;SDS011;7865;50.918;4.510;2023-02-01T07:56:35;9.67;;;2.53;;
15526;SDS011;7865;50.918;4.510;2023-02-01T08:01:37;12.43;;;2.90;;
15526;SDS011;7865;50.918;4.510;2023-02-01T08:06:40;14.73;;;3.27;;
15526;SDS011;7865;50.918;4.510;2023-02-01T08:11:42;14.77;;;3.30;;
15526;SDS011;7865;50.918;4.510;2023-02-01T08:16:43;16.00;;;3.80;;
15526;SDS011;7865;50.918;4.510;2023-02-01T08:21:46;15.73;;;4.43;;
15526;SDS011;7865;50.918;4.510;2023-02-01T08:26:50;14.60;;;3.70;;
15526;SDS011;7865;50.918;4.510;2023-02-01T08:31:52;10.63;;;3.20;;
15526;SDS011;7865;50.918;4.510;2023-02-01T08:36:55;8.63;;;3.07;;
15526;SDS011;7865;50.918;4.510;2023-02-01T08:42:01;13.77;;;4.47;;
15526;SDS011;7865;50.918;4.510;2023-02-01T08:47:22;27.57;;;4.23;;
15526;SDS011;7865;50.918;4.510;2023-02-01T08:52:24;10.47;;;3.13;;
15526;SDS011;7865;50.918;4.510;2023-02-01T08:57:26;13.77;;;3.03;;
15526;SDS011;7865;50.918;4.510;2023-02-01T09:02:28;14.47;;;3.67;;
15526;SDS011;7865;50.918;4.510;2023-02-01T09:07:30;18.17;;;3.87;;
15526;SDS011;7865;50.918;4.510;2023-02-01T09:12:33;16.73;;;3.40;;
15526;SDS011;7865;50.918;4.510;2023-02-01T09:17:35;12.27;;;3.30;;
15526;SDS011;7865;50.918;4.510;2023-02-01T09:22:37;16.37;;;3.40;;
15526;SDS011;7865;50.918;4.510;2023-02-01T09:27:39;16.47;;;3.23;;
15526;SDS011;7865;50.918;4.510;2023-02-01T09:32:41;12.20;;;2.83;;
15526;SDS011;7865;50.918;4.510;2023-02-01T09:37:43;14.00;;;3.53;;
15526;SDS011;7865;50.918;4.510;2023-02-01T09:48:11;13.17;;;2.90;;
15526;SDS011;7865;50.918;4.510;2023-02-01T09:53:36;9.23;;;2.80;;
15526;SDS011;7865;50.918;4.510;2023-02-01T09:58:43;13.03;;;2.93;;
15526;SDS011;7865;50.918;4.510;2023-02-01T10:03:49;16.27;;;3.00;;
15526;SDS011;7865;50.918;4.510;2023-02-01T10:14:20;17.73;;;3.23;;
15526;SDS011;7865;50.918;4.510;2023-02-01T10:30:44;13.67;;;3.13;;
15526;SDS011;7865;50.918;4.510;2023-02-01T10:35:50;13.40;;;3.17;;
15526;SDS011;7865;50.918;4.510;2023-02-01T10:41:04;20.03;;;3.63;;
15526;SDS011;7865;50.918;4.510;2023-02-01T10:46:15;14.27;;;3.90;;
15526;SDS011;7865;50.918;4.510;2023-02-01T10:51:24;13.73;;;2.90;;
15526;SDS011;7865;50.918;4.510;2023-02-01T10:56:29;18.03;;;2.80;;
15526;SDS011;7865;50.918;4.510;2023-02-01T11:01:39;9.23;;;2.40;;
15526;SDS011;7865;50.918;4.510;2023-02-01T11:06:44;7.73;;;2.50;;
15526;SDS011;7865;50.918;4.510;2023-02-01T11:12:20;7.40;;;2.17;;
15526;SDS011;7865;50.918;4.510;2023-02-01T11:17:38;9.73;;;2.70;;
15526;SDS011;7865;50.918;4.510;2023-02-01T11:23:01;9.37;;;2.37;;
15526;SDS011;7865;50.918;4.510;2023-02-01T11:28:04;12.40;;;2.37;;
15526;SDS011;7865;50.918;4.510;2023-02-01T11:33:07;11.80;;;2.67;;
15526;SDS011;7865;50.918;4.510;2023-02-01T11:43:23;5.73;;;2.20;;
15526;SDS011;7865;50.918;4.510;2023-02-01T11:48:30;7.83;;;2.30;;
15526;SDS011;7865;50.918;4.510;2023-02-01T11:59:18;12.77;;;2.53;;
15526;SDS011;7865;50.918;4.510;2023-02-01T12:26:25;9.77;;;3.03;;
15526;SDS011;7865;50.918;4.510;2023-02-01T12:37:09;10.83;;;2.13;;
15526;SDS011;7865;50.918;4.510;2023-02-01T12:42:36;8.67;;;1.77;;
15526;SDS011;7865;50.918;4.510;2023-02-01T12:48:02;10.37;;;1.90;;
15526;SDS011;7865;50.918;4.510;2023-02-01T12:53:30;6.83;;;1.77;;
15526;SDS011;7865;50.918;4.510;2023-02-01T12:58:48;8.27;;;1.57;;
15526;SDS011;7865;50.918;4.510;2023-02-01T13:03:59;6.87;;;1.50;;
15526;SDS011;7865;50.918;4.510;2023-02-01T13:14:48;7.27;;;1.80;;
15526;SDS011;7865;50.918;4.510;2023-02-01T13:20:09;7.17;;;1.40;;
15526;SDS011;7865;50.918;4.510;2023-02-01T13:41:35;7.40;;;1.60;;
15526;SDS011;7865;50.918;4.510;2023-02-01T13:46:56;7.80;;;1.83;;
15526;SDS011;7865;50.918;4.510;2023-02-01T13:52:00;7.10;;;2.07;;
15526;SDS011;7865;50.918;4.510;2023-02-01T13:57:03;4.63;;;1.03;;
15526;SDS011;7865;50.918;4.510;2023-02-01T14:13:04;9.73;;;2.10;;
15526;SDS011;7865;50.918;4.510;2023-02-01T14:23:40;5.73;;;1.77;;
15526;SDS011;7865;50.918;4.510;2023-02-01T14:29:07;4.50;;;1.23;;
15526;SDS011;7865;50.918;4.510;2023-02-01T14:34:24;5.27;;;1.60;;
15526;SDS011;7865;50.918;4.510;2023-02-01T14:39:37;8.47;;;1.83;;
15526;SDS011;7865;50.918;4.510;2023-02-01T14:44:50;10.23;;;1.97;;
15526;SDS011;7865;50.918;4.510;2023-02-01T14:50:07;12.20;;;2.23;;
15526;SDS011;7865;50.918;4.510;2023-02-01T15:00:27;9.03;;;1.60;;
15526;SDS011;7865;50.918;4.510;2023-02-01T15:05:32;19.10;;;2.37;;
15526;SDS011;7865;50.918;4.510;2023-02-01T15:10:39;8.00;;;2.40;;
15526;SDS011;7865;50.918;4.510;2023-02-01T15:15:44;9.60;;;1.83;;
15526;SDS011;7865;50.918;4.510;2023-02-01T15:20:55;4.37;;;1.93;;
15526;SDS011;7865;50.918;4.510;2023-02-01T15:26:26;7.70;;;1.80;;
15526;SDS011;7865;50.918;4.510;2023-02-01T15:36:37;11.10;;;1.93;;
15526;SDS011;7865;50.918;4.510;2023-02-01T15:41:39;10.00;;;2.13;;
15526;SDS011;7865;50.918;4.510;2023-02-01T15:46:44;7.97;;;2.30;;
15526;SDS011;7865;50.918;4.510;2023-02-01T15:51:48;10.20;;;2.10;;
15526;SDS011;7865;50.918;4.510;2023-02-01T15:56:52;5.93;;;1.77;;
15526;SDS011;7865;50.918;4.510;2023-02-01T16:01:56;5.30;;;1.90;;
15526;SDS011;7865;50.918;4.510;2023-02-01T16:07:01;11.50;;;2.40;;
15526;SDS011;7865;50.918;4.510;2023-02-01T16:12:28;7.27;;;2.33;;
15526;SDS011;7865;50.918;4.510;2023-02-01T16:17:35;10.03;;;2.50;;
15526;SDS011;7865;50.918;4.510;2023-02-01T16:22:37;15.30;;;2.47;;
15526;SDS011;7865;50.918;4.510;2023-02-01T16:27:39;7.93;;;2.73;;
15526;SDS011;7865;50.918;4.510;2023-02-01T16:32:41;9.50;;;2.97;;
15526;SDS011;7865;50.918;4.510;2023-02-01T16:37:43;8.90;;;1.90;;
15526;SDS011;7865;50.918;4.510;2023-02-01T16:42:46;11.10;;;2.07;;
15526;SDS011;7865;50.918;4.510;2023-02-01T16:47:52;7.70;;;2.30;;
15526;SDS011;7865;50.918;4.510;2023-02-01T16:52:56;12.73;;;2.90;;
15526;SDS011;7865;50.918;4.510;2023-02-01T16:57:58;15.97;;;2.83;;
15526;SDS011;7865;50.918;4.510;2023-02-01T17:03:00;18.47;;;2.53;;
15526;SDS011;7865;50.918;4.510;2023-02-01T17:08:03;9.93;;;2.67;;
15526;SDS011;7865;50.918;4.510;2023-02-01T17:13:10;11.07;;;2.90;;
15526;SDS011;7865;50.918;4.510;2023-02-01T17:18:14;16.43;;;2.77;;
15526;SDS011;7865;50.918;4.510;2023-02-01T17:23:19;12.90;;;2.70;;
15526;SDS011;7865;50.918;4.510;2023-02-01T17:28:21;8.07;;;2.50;;
15526;SDS011;7865;50.918;4.510;2023-02-01T17:38:36;13.70;;;2.63;;
15526;SDS011;7865;50.918;4.510;2023-02-01T17:43:39;15.20;;;2.97;;
15526;SDS011;7865;50.918;4.510;2023-02-01T17:48:41;10.73;;;2.70;;
15526;SDS011;7865;50.918;4.510;2023-02-01T17:53:44;15.93;;;2.93;;
15526;SDS011;7865;50.918;4.510;2023-02-01T17:58:47;15.07;;;2.60;;
15526;SDS011;7865;50.918;4.510;2023-02-01T18:03:49;9.30;;;2.63;;
15526;SDS011;7865;50.918;4.510;2023-02-01T18:08:53;11.37;;;2.73;;
15526;SDS011;7865;50.918;4.510;2023-02-01T18:13:55;9.57;;;3.20;;
15526;SDS011;7865;50.918;4.510;2023-02-01T18:18:58;9.53;;;2.57;;
15526;SDS011;7865;50.918;4.510;2023-02-01T18:24:02;13.57;;;3.40;;
15526;SDS011;7865;50.918;4.510;2023-02-01T18:29:05;11.17;;;3.20;;
15526;SDS011;7865;50.918;4.510;2023-02-01T18:34:08;12.00;;;2.93;;
15526;SDS011;7865;50.918;4.510;2023-02-01T18:39:11;13.67;;;2.80;;
15526;SDS011;7865;50.918;4.510;2023-02-01T18:44:13;11.40;;;2.77;;
15526;SDS011;7865;50.918;4.510;2023-02-01T18:49:16;16.93;;;3.40;;
15526;SDS011;7865;50.918;4.510;2023-02-01T18:54:19;12.17;;;2.67;;
15526;SDS011;7865;50.918;4.510;2023-02-01T18:59:21;21.33;;;3.73;;
15526;SDS011;7865;50.918;4.510;2023-02-01T19:04:23;16.77;;;3.40;;
15526;SDS011;7865;50.918;4.510;2023-02-01T19:09:26;12.53;;;2.70;;
15526;SDS011;7865;50.918;4.510;2023-02-01T19:14:29;11.90;;;3.10;;
15526;SDS011;7865;50.918;4.510;2023-02-01T19:19:31;11.53;;;3.03;;
15526;SDS011;7865;50.918;4.510;2023-02-01T19:24:33;11.33;;;2.83;;
15526;SDS011;7865;50.918;4.510;2023-02-01T19:29:35;13.43;;;3.17;;
15526;SDS011;7865;50.918;4.510;2023-02-01T19:34:41;12.63;;;3.20;;
15526;SDS011;7865;50.918;4.510;2023-02-01T19:39:43;13.10;;;3.97;;
15526;SDS011;7865;50.918;4.510;2023-02-01T19:44:45;14.30;;;3.70;;
15526;SDS011;7865;50.918;4.510;2023-02-01T19:49:47;15.27;;;4.23;;
15526;SDS011;7865;50.918;4.510;2023-02-01T19:54:49;14.33;;;4.17;;
15526;SDS011;7865;50.918;4.510;2023-02-01T19:59:51;13.13;;;3.30;;
15526;SDS011;7865;50.918;4.510;2023-02-01T20:04:53;13.33;;;3.43;;
15526;SDS011;7865;50.918;4.510;2023-02-01T20:09:55;20.50;;;3.93;;
15526;SDS011;7865;50.918;4.510;2023-02-01T20:14:57;18.67;;;3.60;;
15526;SDS011;7865;50.918;4.510;2023-02-01T20:19:59;13.23;;;3.13;;
15526;SDS011;7865;50.918;4.510;2023-02-01T20:25:01;9.40;;;3.57;;
15526;SDS011;7865;50.918;4.510;2023-02-01T20:30:06;10.07;;;3.17;;
15526;SDS011;7865;50.918;4.510;2023-02-01T20:35:09;14.23;;;3.67;;
15526;SDS011;7865;50.918;4.510;2023-02-01T20:40:11;21.63;;;4.17;;
15526;SDS011;7865;50.918;4.510;2023-02-01T20:45:13;11.00;;;3.20;;
15526;SDS011;7865;50.918;4.510;2023-02-01T20:50:16;14.73;;;3.07;;
15526;SDS011;7865;50.918;4.510;2023-02-01T20:55:18;13.47;;;4.07;;
15526;SDS011;7865;50.918;4.510;2023-02-01T21:00:20;14.40;;;3.13;;
15526;SDS011;7865;50.918;4.510;2023-02-01T21:05:25;19.23;;;4.90;;
15526;SDS011;7865;50.918;4.510;2023-02-01T21:10:40;18.90;;;3.63;;
15526;SDS011;7865;50.918;4.510;2023-02-01T21:15:42;20.43;;;4.03;;
15526;SDS011;7865;50.918;4.510;2023-02-01T21:20:44;12.40;;;3.27;;
15526;SDS011;7865;50.918;4.510;2023-02-01T21:25:47;14.07;;;3.90;;
15526;SDS011;7865;50.918;4.510;2023-02-01T21:30:49;19.93;;;4.07;;
15526;SDS011;7865;50.918;4.510;2023-02-01T21:35:51;15.83;;;5.00;;
15526;SDS011;7865;50.918;4.510;2023-02-01T21:40:53;10.90;;;3.67;;
15526;SDS011;7865;50.918;4.510;2023-02-01T21:46:14;18.57;;;3.63;;
15526;SDS011;7865;50.918;4.510;2023-02-01T21:51:16;15.40;;;3.70;;
15526;SDS011;7865;50.918;4.510;2023-02-01T21:56:19;15.97;;;4.20;;
15526;SDS011;7865;50.918;4.510;2023-02-01T22:01:21;30.80;;;4.27;;
15526;SDS011;7865;50.918;4.510;2023-02-01T22:06:44;15.70;;;3.60;;
15526;SDS011;7865;50.918;4.510;2023-02-01T22:11:49;13.80;;;3.30;;
15526;SDS011;7865;50.918;4.510;2023-02-01T22:16:52;13.53;;;3.43;;
15526;SDS011;7865;50.918;4.510;2023-02-01T22:21:54;9.93;;;3.80;;
15526;SDS011;7865;50.918;4.510;2023-02-01T22:26:56;16.43;;;4.17;;
15526;SDS011;7865;50.918;4.510;2023-02-01T22:32:15;10.13;;;3.40;;
15526;SDS011;7865;50.918;4.510;2023-02-01T22:37:17;13.63;;;2.60;;
15526;SDS011;7865;50.918;4.510;2023-02-01T22:42:19;17.03;;;2.93;;
15526;SDS011;7865;50.918;4.510;2023-02-01T22:47:21;15.83;;;3.33;;
15526;SDS011;7865;50.918;4.510;2023-02-01T22:52:23;9.67;;;2.60;;
15526;SDS011;7865;50.918;4.510;2023-02-01T22:57:24;10.47;;;2.80;;
15526;SDS011;7865;50.918;4.510;2023-02-01T23:02:26;9.67;;;3.47;;
15526;SDS011;7865;50.918;4.510;2023-02-01T23:07:28;15.80;;;4.07;;
15526;SDS011;7865;50.918;4.510;2023-02-01T23:12:30;19.87;;;3.80;;
15526;SDS011;7865;50.918;4.510;2023-02-01T23:17:32;16.77;;;3.27;;
15526;SDS011;7865;50.918;4.510;2023-02-01T23:22:38;15.83;;;3.10;;
15526;SDS011;7865;50.918;4.510;2023-02-01T23:27:40;12.73;;;3.00;;
15526;SDS011;7865;50.918;4.510;2023-02-01T23:32:42;11.83;;;2.83;;
15526;SDS011;7865;50.918;4.510;2023-02-01T23:37:44;16.17;;;3.50;;
15526;SDS011;7865;50.918;4.510;2023-02-01T23:42:46;9.93;;;2.30;;
15526;SDS011;7865;50.918;4.510;2023-02-01T23:48:08;12.50;;;3.03;;
15526;SDS011;7865;50.918;4.510;2023-02-01T23:53:10;13.80;;;2.90;;
15526;SDS011;7865;50.918;4.510;2023-02-01T23:58:12;8.80;;;2.87;;
